Main page
METAR-TAF:

METAR-TAF

Airports :

Shaikh Zayed International Airport

Rahim Yar Khan, Pakistan

latitude: 28-23-02N, longitude: 70-16-47E, elevation: 83 m

METAR: missing

Time: 06:42 (01:42 UTC)

Forecast

The report was made 3 hours and 57 minutes ago, at 21:45 UTC
Forecast valid from 11 at 00 UTC to 11 at 18 UTC
Wind 10 kt from the Northwest
Visibility: 3500 m
Few clouds at a height of 12000 ft
smoke
From 11 at 0700 UTC
Wind 10 kt from the West
Visibility: 6000 m
Scattered clouds at a height of 12000 ft

TAF: OPRK 102145Z 1100/1118 31010KT 3500 FU FEW120 TN19/1101Z TX39/1110Z FM110700 27010KT 6000 SCT120

Weather observations and forecasts of more than 4000 airports (METAR and TAF reports).

The available stations are represented by yellow and red dots on the map.

Hover mouse over dot to see the name of the station.

Then click to see weather observations and forecasts.

To change the map : click on the green buttons with a black cross to zoom in, on the green button with a dash to zoom out, or on the green arrows for adjacent maps.


METAR-TAF: